Time;durP1;ratioP1;P1;durP2;ratioP2;P2;SDS_P1;SDS_P2;PMS_P1;PMS_P2;Temp;Humidity;BMP_temperature;BMP_pressure;BME280_temperature;BME280_humidity;BME280_pressure;Samples;Min_cycle;Max_cycle;Signal;HPM_P1;HPM_P2
2023/09/27 00:02:00;;;;;;;10.75;5.22;;;12.90;99.90;;;;;;6174055;22;93148;-73
2023/09/27 00:04:28;;;;;;;11.57;5.75;;;12.80;99.90;;;;;;6173816;22;92552;-74
2023/09/27 00:06:53;;;;;;;5.85;4.35;;;12.80;99.90;;;;;;6175273;22;92556;-74
2023/09/27 00:09:19;;;;;;;8.05;4.88;;;12.80;99.90;;;;;;6176943;22;93127;-74
2023/09/27 00:11:45;;;;;;;7.70;4.85;;;12.80;99.90;;;;;;6175523;22;93108;-74
2023/09/27 00:14:10;;;;;;;8.07;4.85;;;12.70;99.90;;;;;;6187223;22;92685;-74
2023/09/27 00:16:36;;;;;;;7.05;4.63;;;12.70;99.90;;;;;;6145356;22;92337;-73
2023/09/27 00:19:05;;;;;;;8.02;4.68;;;12.70;99.90;;;;;;6145074;22;93772;-73
2023/09/27 00:21:31;;;;;;;11.70;5.22;;;12.60;99.90;;;;;;6144904;22;92476;-73
2023/09/27 00:23:57;;;;;;;8.93;5.18;;;12.70;99.90;;;;;;6146299;22;92680;-73
2023/09/27 00:26:22;;;;;;;10.45;5.57;;;12.60;99.90;;;;;;6143360;22;94444;-74
2023/09/27 00:28:48;;;;;;;7.90;4.95;;;12.60;99.90;;;;;;6146011;22;93017;-73
2023/09/27 00:31:17;;;;;;;11.48;5.93;;;12.60;99.90;;;;;;6144749;22;92667;-74
2023/09/27 00:33:42;;;;;;;9.70;5.95;;;12.60;99.90;;;;;;6145783;22;92594;-73
2023/09/27 00:36:08;;;;;;;9.23;4.88;;;12.50;99.90;;;;;;6145767;22;92472;-74
2023/09/27 00:38:34;;;;;;;11.50;5.88;;;12.50;99.90;;;;;;6187008;22;96535;-74
2023/09/27 00:40:59;;;;;;;12.50;4.82;;;12.40;99.90;;;;;;6175219;22;96359;-74
2023/09/27 00:43:30;;;;;;;13.07;5.72;;;12.40;99.90;;;;;;6177036;22;91638;-73
2023/09/27 00:46:06;;;;;;;11.50;5.55;;;12.40;99.90;;;;;;6177675;22;92562;-73
2023/09/27 00:48:35;;;;;;;8.02;5.57;;;12.30;99.90;;;;;;6174973;22;93643;-73
2023/09/27 00:51:02;;;;;;;8.77;5.07;;;12.30;99.90;;;;;;6173665;22;93647;-73
2023/09/27 00:53:31;;;;;;;8.13;4.53;;;12.30;99.90;;;;;;6174761;22;93003;-73
2023/09/27 00:55:58;;;;;;;11.25;5.93;;;12.30;99.90;;;;;;6174796;22;92721;-74
2023/09/27 00:58:24;;;;;;;5.93;4.63;;;12.30;99.90;;;;;;6173633;22;96229;-73
2023/09/27 01:00:51;;;;;;;8.85;5.18;;;12.20;99.90;;;;;;6174802;22;93457;-74
2023/09/27 01:03:17;;;;;;;10.35;5.20;;;12.20;99.90;;;;;;6173167;22;92964;-73
2023/09/27 01:05:44;;;;;;;10.68;6.20;;;12.20;99.90;;;;;;6174058;22;92512;-73
2023/09/27 01:08:10;;;;;;;9.80;4.90;;;12.20;99.90;;;;;;6173976;22;95521;-74
2023/09/27 01:10:36;;;;;;;8.60;5.43;;;12.20;99.90;;;;;;6172717;22;95776;-75
2023/09/27 01:13:05;;;;;;;12.93;5.88;;;12.20;99.90;;;;;;6175446;22;92659;-76
2023/09/27 01:15:32;;;;;;;8.10;4.95;;;12.10;99.90;;;;;;6171994;22;93147;-75
2023/09/27 01:18:00;;;;;;;10.70;5.53;;;12.10;99.90;;;;;;6173948;22;93109;-75
2023/09/27 01:20:27;;;;;;;11.52;6.32;;;12.10;99.90;;;;;;6173034;22;96735;-75
2023/09/27 01:23:06;;;;;;;12.05;5.65;;;12.00;99.90;;;;;;6174019;22;92861;-75
2023/09/27 01:25:36;;;;;;;7.43;4.85;;;12.00;99.90;;;;;;6174738;22;92490;-75
2023/09/27 01:28:07;;;;;;;9.15;5.68;;;12.00;99.90;;;;;;6174399;22;94376;-75
2023/09/27 01:30:33;;;;;;;8.55;5.25;;;11.90;99.90;;;;;;6173393;22;96599;-75
2023/09/27 01:33:05;;;;;;;9.00;5.10;;;11.90;99.90;;;;;;6173914;22;91960;-75
2023/09/27 01:35:35;;;;;;;9.10;5.07;;;11.90;99.90;;;;;;6171998;22;92818;-75
2023/09/27 01:38:02;;;;;;;7.75;4.47;;;11.90;99.90;;;;;;6172942;22;96595;-75
2023/09/27 01:40:32;;;;;;;10.93;4.80;;;11.80;99.90;;;;;;6173323;22;96682;-75
2023/09/27 01:43:07;;;;;;;11.30;4.85;;;11.80;99.90;;;;;;6176537;22;92604;-75
2023/09/27 01:45:33;;;;;;;7.18;5.00;;;11.80;99.90;;;;;;6173801;22;92647;-75
2023/09/27 01:48:00;;;;;;;13.02;5.50;;;11.70;99.90;;;;;;6173726;22;96900;-75
2023/09/27 01:50:26;;;;;;;8.63;5.07;;;11.70;99.90;;;;;;6169330;22;96557;-75
2023/09/27 01:52:53;;;;;;;9.77;4.80;;;11.70;99.90;;;;;;6154251;22;93141;-75
2023/09/27 01:55:19;;;;;;;13.57;5.47;;;11.70;99.90;;;;;;6175176;22;92540;-75
2023/09/27 01:57:47;;;;;;;11.52;5.57;;;11.60;99.90;;;;;;6174636;22;92548;-75
2023/09/27 02:00:15;;;;;;;16.42;6.03;;;11.60;99.90;;;;;;6175032;22;92718;-74
2023/09/27 02:02:55;;;;;;;11.00;4.85;;;11.60;99.90;;;;;;6173651;22;92780;-76
2023/09/27 02:05:21;;;;;;;13.07;5.10;;;11.60;99.90;;;;;;6172716;22;93680;-76
2023/09/27 02:07:47;;;;;;;13.18;6.25;;;11.60;99.90;;;;;;6175133;22;93117;-75
2023/09/27 02:10:12;;;;;;;12.98;6.50;;;11.60;99.90;;;;;;6175650;22;92560;-76
2023/09/27 02:12:38;;;;;;;9.88;5.60;;;11.60;99.90;;;;;;6177369;22;92217;-75
2023/09/27 02:15:05;;;;;;;15.20;6.07;;;11.60;99.90;;;;;;6174075;22;92342;-75
2023/09/27 02:17:31;;;;;;;14.50;6.50;;;11.60;99.90;;;;;;6175068;22;95271;-75
2023/09/27 02:19:57;;;;;;;11.57;6.65;;;11.60;99.90;;;;;;6174349;22;99949;-76
2023/09/27 02:22:23;;;;;;;15.57;5.90;;;11.60;99.90;;;;;;6174281;22;91690;-76
2023/09/27 02:24:51;;;;;;;11.65;6.18;;;11.60;99.90;;;;;;6177191;22;92732;-74
2023/09/27 02:27:16;;;;;;;14.85;5.93;;;11.50;99.90;;;;;;6169159;22;96242;-75
2023/09/27 02:29:42;;;;;;;9.75;5.70;;;11.60;99.90;;;;;;6163146;22;95366;-75
2023/09/27 02:32:09;;;;;;;12.88;6.85;;;11.60;99.90;;;;;;6169941;22;92244;-75
2023/09/27 02:34:55;;;;;;;9.75;5.72;;;11.60;99.90;;;;;;6148509;22;92655;-75
2023/09/27 02:37:21;;;;;;;14.38;6.25;;;11.60;99.90;;;;;;6173913;22;96653;-75
2023/09/27 02:39:49;;;;;;;13.43;6.57;;;11.50;99.90;;;;;;6175582;22;93226;-75
2023/09/27 02:42:14;;;;;;;13.05;5.78;;;11.50;99.90;;;;;;6174417;22;92501;-75
2023/09/27 02:44:40;;;;;;;15.27;6.13;;;11.50;99.90;;;;;;6172692;22;92848;-75
2023/09/27 02:47:09;;;;;;;10.07;6.20;;;11.50;99.90;;;;;;6175868;22;93005;-74
2023/09/27 02:49:35;;;;;;;11.20;6.35;;;11.40;99.90;;;;;;6174080;22;92759;-75
2023/09/27 02:52:01;;;;;;;10.73;5.85;;;11.40;99.90;;;;;;6176332;22;92839;-75
2023/09/27 02:54:27;;;;;;;11.77;6.60;;;11.40;99.90;;;;;;6170106;22;93469;-74
2023/09/27 02:56:53;;;;;;;11.02;6.05;;;11.40;99.90;;;;;;6142802;22;96024;-75
2023/09/27 02:59:19;;;;;;;11.32;5.68;;;11.40;99.90;;;;;;6142850;22;95519;-75
2023/09/27 03:01:44;;;;;;;14.35;6.82;;;11.40;99.90;;;;;;6146170;22;92300;-76
2023/09/27 03:04:11;;;;;;;13.07;6.47;;;11.40;99.90;;;;;;6144698;22;92223;-74
2023/09/27 03:06:37;;;;;;;18.48;7.28;;;11.40;99.90;;;;;;6168022;22;96251;-76
2023/09/27 03:09:05;;;;;;;12.85;6.55;;;11.40;99.90;;;;;;6145273;22;92748;-75
2023/09/27 03:11:31;;;;;;;12.77;6.30;;;11.40;99.90;;;;;;6145660;22;92054;-75
2023/09/27 03:13:57;;;;;;;10.07;6.10;;;11.40;99.90;;;;;;6144811;22;92773;-74
2023/09/27 03:16:23;;;;;;;13.20;5.78;;;11.30;99.90;;;;;;6168304;22;95531;-76
2023/09/27 03:18:49;;;;;;;14.02;7.10;;;11.30;99.90;;;;;;6143512;22;93982;-75
2023/09/27 03:21:33;;;;;;;12.60;6.82;;;11.30;99.90;;;;;;6143870;22;92596;-75
2023/09/27 03:23:59;;;;;;;17.92;6.75;;;11.30;99.90;;;;;;6144930;22;92501;-75
2023/09/27 03:26:24;;;;;;;19.08;6.82;;;11.30;99.90;;;;;;6143893;22;93111;-75
2023/09/27 03:28:51;;;;;;;13.43;6.60;;;11.30;99.90;;;;;;6144167;22;92752;-76
2023/09/27 03:31:17;;;;;;;10.95;6.45;;;11.30;99.90;;;;;;6144803;22;92563;-75
2023/09/27 03:33:43;;;;;;;10.48;5.95;;;11.30;99.90;;;;;;6145659;22;93751;-75
2023/09/27 03:36:09;;;;;;;10.27;5.95;;;11.30;99.90;;;;;;6143899;22;95754;-75
2023/09/27 03:38:34;;;;;;;11.77;6.43;;;11.30;99.90;;;;;;6144010;22;96102;-75
2023/09/27 03:41:00;;;;;;;14.13;6.20;;;11.20;99.90;;;;;;6143856;22;92088;-75
2023/09/27 03:43:26;;;;;;;11.57;6.13;;;11.20;99.90;;;;;;6143951;22;93472;-75
2023/09/27 03:45:52;;;;;;;12.48;6.03;;;11.20;99.90;;;;;;6144539;22;93139;-75
2023/09/27 03:48:19;;;;;;;13.23;6.53;;;11.20;99.90;;;;;;6143659;22;96144;-76
2023/09/27 03:50:45;;;;;;;12.93;6.78;;;11.10;99.90;;;;;;6145355;22;92125;-75
2023/09/27 03:53:11;;;;;;;13.43;7.30;;;11.10;99.90;;;;;;6144188;22;92831;-75
2023/09/27 03:55:36;;;;;;;17.02;7.75;;;11.10;99.90;;;;;;6143343;22;95844;-75
2023/09/27 03:58:02;;;;;;;11.85;6.55;;;11.00;99.90;;;;;;6145127;22;93298;-76
2023/09/27 04:00:28;;;;;;;10.38;5.93;;;11.00;99.90;;;;;;6142503;22;92112;-75
2023/09/27 04:02:54;;;;;;;14.18;6.60;;;11.00;99.90;;;;;;6143133;22;92678;-75
2023/09/27 04:05:23;;;;;;;11.90;5.78;;;11.00;99.90;;;;;;6143587;22;94326;-74
2023/09/27 04:07:49;;;;;;;13.00;6.63;;;10.90;99.90;;;;;;6142876;22;96741;-74
2023/09/27 04:10:17;;;;;;;13.13;6.40;;;10.90;99.90;;;;;;6145089;22;92701;-76
2023/09/27 04:12:43;;;;;;;8.93;6.15;;;10.90;99.90;;;;;;6145687;22;92561;-74
2023/09/27 04:15:10;;;;;;;11.73;6.07;;;10.90;99.90;;;;;;6143894;22;96356;-76
2023/09/27 04:17:39;;;;;;;12.52;6.07;;;10.90;99.90;;;;;;6144745;22;93799;-74
2023/09/27 04:20:17;;;;;;;11.73;7.07;;;10.90;99.90;;;;;;6145145;22;92474;-75
2023/09/27 04:22:47;;;;;;;14.35;7.38;;;10.90;99.90;;;;;;6142895;22;92646;-75
2023/09/27 04:25:14;;;;;;;14.55;8.02;;;10.90;99.90;;;;;;6143453;22;93394;-73
2023/09/27 04:27:49;;;;;;;15.32;7.55;;;10.90;99.90;;;;;;6144359;22;95044;-72
2023/09/27 04:30:18;;;;;;;12.48;7.35;;;11.00;99.90;;;;;;6134074;22;92419;-76
2023/09/27 04:32:46;;;;;;;18.00;7.43;;;11.00;99.90;;;;;;6143579;22;93757;-74
2023/09/27 04:35:14;;;;;;;12.40;7.13;;;11.00;99.90;;;;;;6143611;22;95157;-75
2023/09/27 04:37:40;;;;;;;13.55;7.43;;;11.00;99.90;;;;;;6144067;22;93534;-74
2023/09/27 04:40:17;;;;;;;14.00;7.53;;;11.00;99.90;;;;;;6145895;22;92009;-75
2023/09/27 04:42:43;;;;;;;14.65;7.65;;;11.00;99.90;;;;;;6145734;22;92377;-75
2023/09/27 04:45:11;;;;;;;13.35;7.43;;;11.00;99.90;;;;;;6142614;22;96065;-76
2023/09/27 04:47:37;;;;;;;12.57;7.18;;;11.00;99.90;;;;;;6144767;22;93413;-76
2023/09/27 04:50:03;;;;;;;18.55;8.50;;;11.00;99.90;;;;;;6145348;22;91906;-75
2023/09/27 04:52:29;;;;;;;19.00;8.00;;;11.00;99.90;;;;;;6144771;22;92433;-75
2023/09/27 04:54:58;;;;;;;18.10;8.45;;;11.00;99.90;;;;;;6146667;22;92879;-75
2023/09/27 04:57:24;;;;;;;14.27;7.45;;;11.10;99.90;;;;;;6144579;22;93596;-75
2023/09/27 04:59:53;;;;;;;15.52;7.97;;;11.10;99.90;;;;;;6144854;22;92520;-76
2023/09/27 05:02:23;;;;;;;28.60;8.05;;;11.10;99.90;;;;;;6143329;22;92897;-76
2023/09/27 05:04:48;;;;;;;12.95;7.20;;;11.10;99.90;;;;;;6141806;22;96091;-75
2023/09/27 05:07:16;;;;;;;17.23;8.15;;;11.10;99.90;;;;;;6144245;22;93381;-76
2023/09/27 05:09:43;;;;;;;14.18;7.63;;;11.10;99.90;;;;;;6144855;22;92446;-75
2023/09/27 05:12:09;;;;;;;14.30;7.53;;;11.10;99.90;;;;;;6145739;22;92391;-75
2023/09/27 05:14:37;;;;;;;9.63;6.60;;;11.20;99.90;;;;;;6144046;22;94781;-75
2023/09/27 05:17:02;;;;;;;12.25;7.50;;;11.20;99.90;;;;;;6146062;22;92647;-76
2023/09/27 05:19:28;;;;;;;14.50;6.88;;;11.20;99.90;;;;;;6146720;22;92362;-75
2023/09/27 05:21:54;;;;;;;11.25;7.20;;;11.20;99.90;;;;;;6145868;22;93967;-76
2023/09/27 05:24:20;;;;;;;12.45;7.00;;;11.20;99.90;;;;;;6146467;22;93033;-76
2023/09/27 05:26:45;;;;;;;16.95;6.43;;;11.20;99.90;;;;;;6145901;22;92605;-76
2023/09/27 05:29:14;;;;;;;13.50;6.80;;;11.10;99.90;;;;;;6169776;22;92795;-75
2023/09/27 05:31:41;;;;;;;17.55;7.30;;;11.10;99.90;;;;;;6145575;22;92591;-75
2023/09/27 05:34:07;;;;;;;15.30;7.28;;;11.10;99.90;;;;;;6145872;22;93036;-75
2023/09/27 05:36:34;;;;;;;17.48;6.43;;;11.10;99.90;;;;;;6145713;22;93101;-75
2023/09/27 05:39:04;;;;;;;17.77;7.55;;;11.10;99.90;;;;;;6162232;22;92377;-75
2023/09/27 05:41:30;;;;;;;14.25;7.40;;;11.00;99.90;;;;;;6159904;22;92606;-75
2023/09/27 05:43:55;;;;;;;14.00;6.68;;;11.00;99.90;;;;;;6174722;22;93487;-76
2023/09/27 05:46:21;;;;;;;20.13;7.13;;;11.00;99.90;;;;;;6199603;22;96184;-76
2023/09/27 05:48:48;;;;;;;15.13;7.07;;;11.00;99.90;;;;;;6176718;22;92665;-75
2023/09/27 05:51:13;;;;;;;12.80;6.82;;;11.00;99.90;;;;;;6176153;22;92790;-76
2023/09/27 05:53:39;;;;;;;13.13;7.20;;;11.00;99.90;;;;;;6175356;22;93110;-75
2023/09/27 05:56:05;;;;;;;15.15;7.72;;;11.00;99.90;;;;;;6174489;22;96162;-76
2023/09/27 05:58:37;;;;;;;14.98;7.78;;;11.00;99.90;;;;;;6174622;22;92747;-76
2023/09/27 06:01:04;;;;;;;14.90;7.53;;;11.00;99.90;;;;;;6176894;22;92634;-75
2023/09/27 06:03:31;;;;;;;13.55;8.25;;;11.00;99.90;;;;;;6172477;22;92981;-75
2023/09/27 06:05:58;;;;;;;21.20;7.85;;;11.00;99.90;;;;;;6171833;22;95063;-76
2023/09/27 06:08:24;;;;;;;17.23;7.93;;;11.00;99.90;;;;;;6140311;22;92734;-75
2023/09/27 06:10:50;;;;;;;22.73;8.38;;;11.00;99.90;;;;;;6137813;22;93458;-75
2023/09/27 06:13:15;;;;;;;26.95;9.40;;;11.10;99.90;;;;;;6138384;22;93125;-73
2023/09/27 06:15:42;;;;;;;25.65;8.73;;;11.10;99.90;;;;;;6139657;22;92986;-73
2023/09/27 06:18:07;;;;;;;19.30;8.40;;;11.10;99.90;;;;;;6158247;22;92929;-72
2023/09/27 06:20:33;;;;;;;20.48;8.90;;;11.20;99.90;;;;;;6140553;22;92634;-73
2023/09/27 06:23:03;;;;;;;16.95;8.32;;;11.20;99.90;;;;;;6138582;22;96636;-72
2023/09/27 06:25:30;;;;;;;20.48;8.02;;;11.30;99.90;;;;;;6138503;22;95617;-73
2023/09/27 06:27:57;;;;;;;14.15;8.10;;;11.30;99.90;;;;;;6142479;22;91905;-74
2023/09/27 06:30:23;;;;;;;17.25;8.82;;;11.30;99.90;;;;;;6139621;22;92325;-75
2023/09/27 06:32:49;;;;;;;17.25;9.43;;;11.40;99.90;;;;;;6136202;22;96353;-78
2023/09/27 06:35:15;;;;;;;18.48;9.38;;;11.50;99.90;;;;;;6136289;22;93927;-76
2023/09/27 06:38:01;;;;;;;15.75;9.23;;;11.60;99.90;;;;;;6136208;22;92784;-75
2023/09/27 06:40:29;;;;;;;16.80;9.13;;;11.60;99.90;;;;;;6135891;22;92461;-76
2023/09/27 06:42:55;;;;;;;16.35;9.15;;;11.70;99.90;;;;;;6136188;22;96849;-76
2023/09/27 06:45:22;;;;;;;18.35;9.32;;;11.80;99.90;;;;;;6137655;22;93421;-75
2023/09/27 06:47:48;;;;;;;15.88;8.95;;;11.90;99.90;;;;;;6138684;22;93043;-74
2023/09/27 06:50:16;;;;;;;14.07;9.13;;;11.90;99.90;;;;;;6137005;22;92481;-76
2023/09/27 06:52:43;;;;;;;16.05;9.07;;;12.00;99.90;;;;;;6136472;22;92801;-76
2023/09/27 06:55:10;;;;;;;17.90;10.48;;;12.10;99.90;;;;;;6136228;22;92621;-76
2023/09/27 06:57:40;;;;;;;21.40;11.10;;;12.20;99.90;;;;;;6137138;22;92913;-76
2023/09/27 07:00:18;;;;;;;20.13;10.55;;;12.30;99.90;;;;;;6134853;22;93737;-74
2023/09/27 07:02:45;;;;;;;19.27;10.55;;;12.40;99.90;;;;;;6134188;22;96352;-75
2023/09/27 07:05:11;;;;;;;17.80;9.32;;;12.50;99.90;;;;;;6158504;22;95211;-76
2023/09/27 07:07:37;;;;;;;15.55;9.45;;;12.60;99.90;;;;;;6136658;22;92401;-74
2023/09/27 07:10:04;;;;;;;17.30;8.48;;;12.60;99.90;;;;;;6138109;22;92749;-74
2023/09/27 07:12:30;;;;;;;13.73;8.95;;;12.80;99.90;;;;;;6137635;22;93693;-75
2023/09/27 07:14:59;;;;;;;17.83;9.55;;;12.80;99.90;;;;;;6135736;22;95955;-75
2023/09/27 07:17:25;;;;;;;10.82;8.73;;;12.90;99.90;;;;;;6130528;22;92115;-74
2023/09/27 07:19:53;;;;;;;16.80;8.00;;;13.00;99.90;;;;;;6137131;22;92740;-74
2023/09/27 07:22:21;;;;;;;12.10;7.97;;;13.10;99.90;;;;;;6136194;22;94668;-76
2023/09/27 07:24:47;;;;;;;11.10;7.22;;;13.20;99.90;;;;;;6137141;22;94699;-78
2023/09/27 07:27:13;;;;;;;20.58;9.05;;;13.30;99.90;;;;;;6136224;22;93396;-76
2023/09/27 07:29:42;;;;;;;14.35;8.52;;;13.40;99.90;;;;;;6148991;22;92177;-79
2023/09/27 07:32:08;;;;;;;13.00;7.65;;;13.50;99.90;;;;;;6137681;22;95632;-76
2023/09/27 07:34:34;;;;;;;12.40;7.72;;;13.50;99.90;;;;;;6137403;22;92746;-78
2023/09/27 07:37:01;;;;;;;15.05;8.90;;;13.60;99.90;;;;;;6140549;22;92926;-78
2023/09/27 07:39:27;;;;;;;21.42;9.02;;;13.70;99.90;;;;;;6137607;22;93719;-78
2023/09/27 07:41:52;;;;;;;12.88;8.52;;;13.70;99.90;;;;;;6138234;22;92991;-78
2023/09/27 07:44:18;;;;;;;10.90;7.65;;;13.80;99.90;;;;;;6137670;22;92859;-75
2023/09/27 07:46:44;;;;;;;13.45;7.97;;;13.90;99.90;;;;;;6134450;22;93015;-78
2023/09/27 07:49:10;;;;;;;14.02;7.72;;;14.00;99.90;;;;;;6136753;22;93338;-77
2023/09/27 07:51:36;;;;;;;13.38;8.48;;;14.10;99.90;;;;;;6136938;22;92629;-76
2023/09/27 07:54:07;;;;;;;16.10;8.82;;;14.30;99.90;;;;;;6134730;22;95983;-76
2023/09/27 07:56:39;;;;;;;17.27;9.13;;;14.40;99.90;;;;;;6136389;22;92705;-77
2023/09/27 07:59:06;;;;;;;15.82;8.48;;;14.60;99.90;;;;;;6137537;22;92969;-76
2023/09/27 08:01:33;;;;;;;16.98;9.77;;;14.70;99.90;;;;;;6136933;22;92967;-77
2023/09/27 08:04:05;;;;;;;14.00;8.68;;;14.80;99.90;;;;;;6137086;22;95517;-77
2023/09/27 08:06:33;;;;;;;15.27;9.18;;;15.00;99.90;;;;;;6138676;22;92376;-75
2023/09/27 08:09:01;;;;;;;13.15;8.27;;;15.10;99.90;;;;;;6137529;22;93386;-77
2023/09/27 08:11:27;;;;;;;12.50;8.65;;;15.20;99.90;;;;;;6137157;22;94118;-75
2023/09/27 08:13:53;;;;;;;13.45;7.75;;;15.30;99.90;;;;;;6136450;22;96779;-75
2023/09/27 08:16:19;;;;;;;12.68;8.35;;;15.50;99.90;;;;;;6136983;22;92512;-76
2023/09/27 08:18:45;;;;;;;23.35;9.45;;;15.60;99.90;;;;;;6137628;22;93047;-77
2023/09/27 08:21:11;;;;;;;24.65;8.30;;;15.70;99.90;;;;;;6138976;22;93646;-79
2023/09/27 08:23:37;;;;;;;22.30;8.43;;;15.80;99.90;;;;;;6163495;22;96331;-76
2023/09/27 08:26:02;;;;;;;12.75;6.47;;;15.90;99.90;;;;;;6138826;22;92631;-79
2023/09/27 08:28:31;;;;;;;11.82;6.65;;;16.00;99.90;;;;;;6140729;22;92696;-78
2023/09/27 08:31:00;;;;;;;21.00;6.45;;;16.20;99.90;;;;;;6139268;22;95852;-78
2023/09/27 08:33:27;;;;;;;16.15;7.18;;;16.30;99.90;;;;;;6140478;22;95181;-79
2023/09/27 08:35:53;;;;;;;11.55;6.30;;;16.40;99.90;;;;;;6141369;22;92923;-76
2023/09/27 08:38:22;;;;;;;14.05;6.75;;;16.50;99.90;;;;;;6142723;22;93535;-78
2023/09/27 08:40:48;;;;;;;11.60;6.90;;;16.60;99.90;;;;;;6141196;22;93679;-75
2023/09/27 08:43:17;;;;;;;11.05;5.95;;;16.70;99.90;;;;;;6141112;22;96320;-78
2023/09/27 08:45:45;;;;;;;8.57;5.40;;;16.80;99.90;;;;;;6144136;22;92503;-76
2023/09/27 08:48:16;;;;;;;12.73;5.97;;;17.00;99.90;;;;;;6143900;22;92690;-77
2023/09/27 08:50:43;;;;;;;13.73;6.05;;;17.20;99.90;;;;;;6145567;22;93859;-78
2023/09/27 08:53:10;;;;;;;10.57;5.85;;;17.30;99.90;;;;;;6147992;22;96094;-78
2023/09/27 08:55:38;;;;;;;9.30;5.25;;;17.50;99.90;;;;;;6168152;22;91473;-77
2023/09/27 08:58:06;;;;;;;10.30;5.57;;;17.70;99.90;;;;;;6143710;22;92347;-80
2023/09/27 09:00:32;;;;;;;12.27;5.35;;;17.90;99.90;;;;;;6174111;22;93257;-78
2023/09/27 09:03:00;;;;;;;15.85;5.82;;;18.10;99.90;;;;;;6168245;22;95201;-75
2023/09/27 09:05:27;;;;;;;8.05;5.03;;;18.30;99.80;;;;;;6160502;22;92670;-78
2023/09/27 09:07:55;;;;;;;8.57;5.40;;;18.50;99.90;;;;;;6174018;22;92590;-79
2023/09/27 09:10:43;;;;;;;12.63;6.25;;;18.70;99.90;;;;;;6176935;22;93088;-77
2023/09/27 09:13:08;;;;;;;13.32;5.10;;;18.90;99.90;;;;;;6175646;22;94638;-78
2023/09/27 09:15:40;;;;;;;7.57;4.68;;;19.20;98.50;;;;;;6178066;22;92593;-78
2023/09/27 09:18:10;;;;;;;10.80;5.18;;;19.40;99.10;;;;;;6173306;22;92802;-76
2023/09/27 09:20:51;;;;;;;7.60;4.20;;;19.70;98.90;;;;;;6173884;22;92513;-76
2023/09/27 09:23:38;;;;;;;9.98;4.47;;;20.00;99.50;;;;;;6172768;22;94267;-77
2023/09/27 09:26:09;;;;;;;10.45;4.10;;;20.30;97.90;;;;;;6173052;22;92814;-76
2023/09/27 09:29:00;;;;;;;7.07;4.30;;;20.60;98.40;;;;;;6170162;22;93540;-76
2023/09/27 09:31:27;;;;;;;9.77;3.88;;;20.90;97.70;;;;;;6174160;22;93203;-76
2023/09/27 09:34:05;;;;;;;8.05;3.03;;;21.20;97.70;;;;;;6174047;22;95712;-76
2023/09/27 09:36:31;;;;;;;6.63;3.50;;;21.50;96.80;;;;;;6172631;22;92457;-77
2023/09/27 09:39:14;;;;;;;8.77;4.00;;;21.70;95.90;;;;;;6175696;22;92452;-77
2023/09/27 09:41:47;;;;;;;5.35;3.05;;;21.90;95.30;;;;;;6143318;22;92919;-77
2023/09/27 09:44:19;;;;;;;9.70;3.85;;;22.10;94.80;;;;;;6142385;22;95643;-77
2023/09/27 09:46:45;;;;;;;6.65;3.75;;;22.40;96.20;;;;;;6144685;22;91985;-76
2023/09/27 09:49:14;;;;;;;6.60;3.50;;;22.70;95.00;;;;;;6143940;22;92464;-77
2023/09/27 09:51:52;;;;;;;5.78;2.90;;;22.90;94.80;;;;;;6142577;22;101127;-77
2023/09/27 09:54:35;;;;;;;6.88;2.97;;;23.00;91.80;;;;;;6141656;22;96469;-77
2023/09/27 09:57:04;;;;;;;4.10;2.65;;;23.00;91.30;;;;;;6160822;22;92718;-77
2023/09/27 09:59:38;;;;;;;10.68;3.40;;;23.00;92.00;;;;;;6161948;22;92456;-77
2023/09/27 10:02:18;;;;;;;7.80;2.78;;;23.20;91.90;;;;;;6175785;22;93633;-77
2023/09/27 10:04:45;;;;;;;6.18;2.80;;;23.40;92.90;;;;;;6173825;22;96150;-77
2023/09/27 10:07:14;;;;;;;4.93;3.00;;;23.50;90.70;;;;;;6175559;22;92561;-76
2023/09/27 10:09:42;;;;;;;5.10;2.97;;;23.50;91.10;;;;;;6176450;22;92849;-76
2023/09/27 10:12:10;;;;;;;6.47;3.00;;;23.70;92.70;;;;;;6175343;22;92329;-77
2023/09/27 10:14:36;;;;;;;6.32;2.90;;;23.90;92.90;;;;;;6166967;22;95409;-77
2023/09/27 10:17:01;;;;;;;7.47;3.33;;;24.10;91.90;;;;;;6154101;22;92556;-77
2023/09/27 10:19:28;;;;;;;4.38;3.17;;;24.20;91.80;;;;;;6173233;22;93916;-77
2023/09/27 10:22:14;;;;;;;5.38;2.78;;;24.30;91.00;;;;;;6174545;22;92778;-77
2023/09/27 10:24:43;;;;;;;8.60;3.33;;;24.40;91.10;;;;;;6174514;22;98241;-77
2023/09/27 10:27:08;;;;;;;7.97;3.45;;;24.50;90.00;;;;;;6148700;22;93571;-77
2023/09/27 10:29:54;;;;;;;6.75;3.50;;;24.60;90.80;;;;;;6143048;22;92930;-77
2023/09/27 10:32:20;;;;;;;6.70;2.95;;;24.70;89.10;;;;;;6142654;22;96658;-76
2023/09/27 10:34:46;;;;;;;6.03;3.53;;;24.80;90.30;;;;;;6142720;22;96488;-77
2023/09/27 10:37:12;;;;;;;6.60;3.03;;;25.00;84.90;;;;;;6143457;22;91943;-77
2023/09/27 10:39:39;;;;;;;10.73;2.90;;;25.10;89.80;;;;;;6140498;22;94240;-77
2023/09/27 10:42:05;;;;;;;4.03;2.45;;;25.30;90.60;;;;;;6164641;22;96568;-77
2023/09/27 10:44:33;;;;;;;8.00;2.85;;;25.60;88.50;;;;;;6156638;22;96499;-76
2023/09/27 10:47:01;;;;;;;4.00;2.30;;;25.80;88.00;;;;;;6173772;22;93824;-76
2023/09/27 10:49:33;;;;;;;4.50;2.40;;;26.10;88.60;;;;;;6171290;22;92835;-77
2023/09/27 10:51:59;;;;;;;5.63;2.67;;;26.30;88.00;;;;;;6171855;22;93205;-77
2023/09/27 10:54:26;;;;;;;7.65;2.33;;;26.50;86.90;;;;;;6172309;22;93614;-77
2023/09/27 10:56:53;;;;;;;5.80;2.42;;;26.80;80.70;;;;;;6171857;22;92467;-77
2023/09/27 10:59:23;;;;;;;6.55;3.10;;;26.80;77.30;;;;;;6170777;22;92309;-78
2023/09/27 11:01:49;;;;;;;5.47;3.03;;;26.80;77.30;;;;;;6170731;22;95964;-77
2023/09/27 11:04:14;;;;;;;9.43;2.65;;;26.80;77.00;;;;;;6171710;22;92434;-78
2023/09/27 11:06:45;;;;;;;6.35;2.65;;;26.60;73.90;;;;;;6171914;22;92717;-77
2023/09/27 11:09:14;;;;;;;5.93;2.90;;;26.50;77.40;;;;;;6172704;22;93614;-77
2023/09/27 11:11:49;;;;;;;8.10;2.88;;;26.60;74.60;;;;;;6178829;22;96091;-77
2023/09/27 11:14:32;;;;;;;4.90;2.35;;;26.70;77.90;;;;;;6141483;22;96148;-79
2023/09/27 11:17:16;;;;;;;9.03;2.87;;;26.70;75.20;;;;;;6139469;22;92585;-77
2023/09/27 11:19:42;;;;;;;4.65;2.72;;;26.70;76.60;;;;;;6142539;22;92501;-78
2023/09/27 11:22:08;;;;;;;24.15;3.08;;;26.80;77.20;;;;;;6144115;22;93321;-77
2023/09/27 11:26:59;;;;;;;8.02;2.97;;;26.90;73.00;;;;;;6143519;22;91777;-78
2023/09/27 11:29:25;;;;;;;5.05;2.50;;;27.10;72.70;;;;;;6143937;22;92589;-77
2023/09/27 11:31:56;;;;;;;4.72;1.77;;;27.10;73.80;;;;;;6142236;22;93299;-78
2023/09/27 11:34:22;;;;;;;4.22;2.17;;;27.20;76.60;;;;;;6137884;22;96118;-77
2023/09/27 11:36:52;;;;;;;4.75;2.47;;;27.20;73.70;;;;;;6139388;22;92467;-77
2023/09/27 11:39:32;;;;;;;6.63;2.40;;;27.20;74.90;;;;;;6139451;22;92620;-78
2023/09/27 11:42:01;;;;;;;4.18;2.05;;;27.30;74.20;;;;;;6140063;22;93098;-77
2023/09/27 11:44:28;;;;;;;4.78;2.28;;;27.40;71.20;;;;;;6140474;22;95653;-77
2023/09/27 11:47:04;;;;;;;4.43;2.30;;;27.30;71.30;;;;;;6142722;22;92631;-77
2023/09/27 11:49:30;;;;;;;4.25;1.88;;;27.30;71.30;;;;;;6141544;22;92552;-77
2023/09/27 11:51:56;;;;;;;5.93;2.05;;;27.40;70.60;;;;;;6144395;22;91982;-75
2023/09/27 11:54:22;;;;;;;4.28;2.20;;;27.50;74.60;;;;;;6141328;22;95581;-75
2023/09/27 11:56:47;;;;;;;5.43;2.28;;;27.40;69.10;;;;;;6143730;22;92524;-75
2023/09/27 11:59:13;;;;;;;4.53;2.20;;;27.30;70.20;;;;;;6126907;22;93999;-75
2023/09/27 12:01:39;;;;;;;6.30;2.47;;;27.30;70.60;;;;;;6137973;22;96491;-75
2023/09/27 12:04:05;;;;;;;6.82;2.20;;;27.40;70.70;;;;;;6141351;22;92926;-74
2023/09/27 12:06:32;;;;;;;3.50;1.73;;;27.70;74.70;;;;;;6139877;22;92883;-75
2023/09/27 12:08:59;;;;;;;5.07;2.28;;;27.90;69.50;;;;;;6141041;22;92978;-75
2023/09/27 12:11:25;;;;;;;6.18;2.17;;;28.10;72.90;;;;;;6138053;22;97094;-75
2023/09/27 12:13:51;;;;;;;3.83;1.90;;;28.20;67.80;;;;;;6140389;22;95838;-74
2023/09/27 12:16:27;;;;;;;3.60;2.08;;;28.20;66.50;;;;;;6168895;22;91998;-74
2023/09/27 12:18:52;;;;;;;3.60;1.90;;;28.10;67.40;;;;;;6143370;22;92455;-75
2023/09/27 12:21:18;;;;;;;4.30;2.00;;;28.20;69.60;;;;;;6140758;22;96173;-75
2023/09/27 12:23:44;;;;;;;3.30;1.70;;;28.20;69.20;;;;;;6140755;22;95803;-75
2023/09/27 12:26:10;;;;;;;6.05;2.22;;;28.10;67.70;;;;;;6143584;22;92609;-74
2023/09/27 12:28:37;;;;;;;2.90;1.75;;;28.10;69.80;;;;;;6166222;22;92601;-75
2023/09/27 12:31:06;;;;;;;6.75;1.88;;;28.10;69.50;;;;;;6144570;22;93179;-74
2023/09/27 12:33:33;;;;;;;3.35;2.00;;;28.00;68.60;;;;;;6142738;22;92513;-75
2023/09/27 12:35:59;;;;;;;4.38;1.95;;;28.10;71.40;;;;;;6143036;22;92692;-74
2023/09/27 12:38:26;;;;;;;4.30;1.80;;;28.10;68.70;;;;;;6140435;22;92938;-74
2023/09/27 12:40:52;;;;;;;5.95;1.80;;;28.10;68.60;;;;;;6141390;22;93104;-77
2023/09/27 12:43:18;;;;;;;4.65;1.92;;;28.10;69.80;;;;;;6139251;22;95848;-75
2023/09/27 12:45:43;;;;;;;2.30;1.58;;;28.20;71.60;;;;;;6141408;22;92361;-75
2023/09/27 12:48:09;;;;;;;8.57;2.40;;;28.30;68.10;;;;;;6138995;22;93854;-74